Time;durP1;ratioP1;P1;durP2;ratioP2;P2;SDS_P1;SDS_P2;PMS_P1;PMS_P2;Temp;Humidity;BMP_temperature;BMP_pressure;BME280_temperature;BME280_humidity;BME280_pressure;Samples;Min_cycle;Max_cycle;Signal;HPM_P1;HPM_P2
2023/10/22 00:02:55;;;;;;;;;;;14.30;99.90;;;;;;6713691;88;20091;-79
2023/10/22 00:12:55;;;;;;;;;;;14.20;99.90;;;;;;6719050;88;20087;-79
2023/10/22 00:22:56;;;;;;;;;;;14.10;99.90;;;;;;6721060;88;20238;-78
2023/10/22 00:32:56;;;;;;;;;;;14.10;99.90;;;;;;6722057;88;20154;-81
2023/10/22 00:42:57;;;;;;;;;;;13.90;99.90;;;;;;6715138;88;20508;-79
2023/10/22 01:03:07;;;;;;;;;;;13.70;99.90;;;;;;6706557;88;20043;-78
2023/10/22 01:13:07;;;;;;;;;;;13.60;99.90;;;;;;6706177;88;20094;-78
2023/10/22 01:23:09;;;;;;;;;;;13.60;99.90;;;;;;6707640;88;20062;-78
2023/10/22 01:33:09;;;;;;;;;;;13.50;99.90;;;;;;6720220;88;20199;-78
2023/10/22 01:43:10;;;;;;;;;;;13.60;99.90;;;;;;6724824;88;20087;-79
2023/10/22 01:53:10;;;;;;;;;;;13.50;99.90;;;;;;6723786;88;20072;-79
2023/10/22 02:03:11;;;;;;;;;;;13.50;99.90;;;;;;6730977;88;20499;-79
2023/10/22 02:13:11;;;;;;;;;;;13.50;99.90;;;;;;6721321;88;20094;-79
2023/10/22 02:23:11;;;;;;;;;;;13.50;99.90;;;;;;6724268;88;20058;-79
2023/10/22 03:04:33;;;;;;;;;;;13.30;99.90;;;;;;6704303;88;20100;-78
2023/10/22 03:14:34;;;;;;;;;;;13.40;99.90;;;;;;6711244;88;20138;-79
2023/10/22 03:24:34;;;;;;;;;;;13.30;99.90;;;;;;6715071;88;20079;-79
2023/10/22 03:34:35;;;;;;;;;;;13.30;99.90;;;;;;6697382;88;20167;-78
2023/10/22 03:44:36;;;;;;;;;;;13.20;99.90;;;;;;6706938;88;20514;-79
2023/10/22 03:54:36;;;;;;;;;;;13.10;99.90;;;;;;6700972;88;20061;-80
2023/10/22 04:04:37;;;;;;;;;;;12.90;99.90;;;;;;6698757;88;20069;-78
2023/10/22 04:14:37;;;;;;;;;;;12.80;99.90;;;;;;6702002;88;20057;-79
2023/10/22 04:24:38;;;;;;;;;;;12.80;99.90;;;;;;6696746;88;20052;-79
2023/10/22 04:34:38;;;;;;;;;;;12.70;99.90;;;;;;6702988;88;20059;-79
2023/10/22 04:44:40;;;;;;;;;;;12.70;99.90;;;;;;6708837;88;20572;-80
2023/10/22 04:54:41;;;;;;;;;;;12.60;99.90;;;;;;6702262;88;20550;-81
2023/10/22 05:04:44;;;;;;;;;;;12.60;99.90;;;;;;6695913;88;20094;-80
2023/10/22 05:14:44;;;;;;;;;;;12.60;99.90;;;;;;6699901;88;20331;-80
2023/10/22 05:24:48;;;;;;;;;;;12.60;99.90;;;;;;6703813;88;20227;-78
2023/10/22 05:34:49;;;;;;;;;;;12.60;99.90;;;;;;6703012;88;20581;-81
2023/10/22 05:44:49;;;;;;;;;;;12.60;99.90;;;;;;6703485;88;20060;-80
2023/10/22 05:54:51;;;;;;;;;;;12.50;99.90;;;;;;6711319;88;20076;-80
2023/10/22 06:04:51;;;;;;;;;;;12.60;99.90;;;;;;6702356;88;20057;-80
2023/10/22 06:14:52;;;;;;;;;;;12.60;99.90;;;;;;6708371;88;20479;-81
2023/10/22 06:24:52;;;;;;;;;;;12.70;99.90;;;;;;6719740;88;20145;-80
2023/10/22 06:34:53;;;;;;;;;;;12.50;99.90;;;;;;6702063;88;20076;-77
2023/10/22 06:44:53;;;;;;;;;;;12.60;99.90;;;;;;6708965;88;20055;-81
2023/10/22 06:54:54;;;;;;;;;;;12.60;99.90;;;;;;6709388;88;20102;-80
2023/10/22 07:04:55;;;;;;;;;;;12.80;99.90;;;;;;6694514;88;20447;-79
2023/10/22 07:14:56;;;;;;;;;;;12.80;99.90;;;;;;6691439;88;20068;-81
2023/10/22 07:24:56;;;;;;;;;;;12.90;99.90;;;;;;6686598;89;20076;-79
2023/10/22 07:34:56;;;;;;;;;;;13.00;99.90;;;;;;6689416;88;20075;-80
2023/10/22 07:44:57;;;;;;;;;;;13.10;99.90;;;;;;6686833;88;20501;-79
2023/10/22 07:54:58;;;;;;;;;;;13.30;99.90;;;;;;6705681;88;20055;-79
2023/10/22 08:04:58;;;;;;;;;;;13.40;99.90;;;;;;6703176;88;20793;-79
2023/10/22 08:15:00;;;;;;;;;;;13.60;99.90;;;;;;6695405;88;20055;-80
2023/10/22 08:25:00;;;;;;;;;;;13.80;99.90;;;;;;6699227;88;20185;-78
2023/10/22 08:35:04;;;;;;;;;;;13.90;99.90;;;;;;6691144;88;20055;-79
2023/10/22 08:45:05;;;;;;;;;;;14.10;99.90;;;;;;6686790;89;20093;-81
2023/10/22 08:55:07;;;;;;;;;;;14.20;99.90;;;;;;6696807;88;20130;-81
2023/10/22 09:05:07;;;;;;;;;;;14.30;99.90;;;;;;6698000;88;20079;-81
2023/10/22 09:15:08;;;;;;;;;;;14.20;99.90;;;;;;6690638;89;20051;-79
2023/10/22 09:25:08;;;;;;;;;;;14.40;99.90;;;;;;6690662;88;20063;-79
2023/10/22 09:35:13;;;;;;;;;;;14.30;99.90;;;;;;6691293;88;20681;-80
2023/10/22 09:45:14;;;;;;;;;;;14.30;99.90;;;;;;6701333;88;20118;-81
2023/10/22 09:55:15;;;;;;;;;;;14.40;99.90;;;;;;6704564;88;20086;-80
2023/10/22 10:05:18;;;;;;;;;;;14.60;99.90;;;;;;6696335;88;20450;-80
2023/10/22 10:15:31;;;;;;;;;;;15.00;99.90;;;;;;6706195;88;20457;-80
2023/10/22 10:25:32;;;;;;;;;;;15.20;99.90;;;;;;6697142;88;20064;-81
2023/10/22 10:35:46;;;;;;;;;;;15.50;99.90;;;;;;6706859;88;20077;-80
2023/10/22 10:46:05;;;;;;;;;;;15.40;99.90;;;;;;6708925;88;20064;-80
2023/10/22 10:56:05;;;;;;;;;;;15.30;99.90;;;;;;6697907;88;20117;-79
2023/10/22 11:06:10;;;;;;;;;;;15.20;99.90;;;;;;6692585;88;20539;-80
2023/10/22 11:16:11;;;;;;;;;;;15.30;99.90;;;;;;6700504;88;20059;-80
2023/10/22 11:26:11;;;;;;;;;;;15.40;99.90;;;;;;6695519;88;20131;-81
2023/10/22 11:36:18;;;;;;;;;;;15.40;99.90;;;;;;6697268;88;20064;-79
2023/10/22 11:46:18;;;;;;;;;;;15.60;99.90;;;;;;6691857;88;20565;-81
2023/10/22 11:56:20;;;;;;;;;;;15.50;99.90;;;;;;6689401;88;20064;-77
2023/10/22 12:06:20;;;;;;;;;;;15.40;99.90;;;;;;6693753;88;20188;-80
2023/10/22 12:16:21;;;;;;;;;;;15.40;99.90;;;;;;6689890;89;20125;-80
2023/10/22 12:26:21;;;;;;;;;;;15.30;99.90;;;;;;6691976;89;20067;-82
2023/10/22 12:36:22;;;;;;;;;;;15.10;99.90;;;;;;6690038;89;20076;-79
2023/10/22 12:46:22;;;;;;;;;;;15.10;99.90;;;;;;6697128;88;20548;-79
2023/10/22 13:06:27;;;;;;;;;;;15.10;99.90;;;;;;6729573;88;20069;-80
2023/10/22 13:16:27;;;;;;;;;;;15.20;99.90;;;;;;6698350;88;20526;-80
2023/10/22 13:26:28;;;;;;;;;;;15.20;99.90;;;;;;6713607;88;20055;-78
2023/10/22 13:36:28;;;;;;;;;;;15.00;99.90;;;;;;6697323;89;20108;-78
2023/10/22 13:46:29;;;;;;;;;;;15.30;99.90;;;;;;6697537;88;20052;-81
2023/10/22 13:56:29;;;;;;;;;;;15.30;99.90;;;;;;6692370;88;20071;-80
2023/10/22 14:06:30;;;;;;;;;;;16.00;99.90;;;;;;6697048;88;20079;-81
2023/10/22 14:16:30;;;;;;;;;;;15.80;99.90;;;;;;6692809;89;20113;-79
2023/10/22 14:26:31;;;;;;;;;;;15.80;99.90;;;;;;6695940;88;20047;-79
2023/10/22 14:36:33;;;;;;;;;;;15.60;99.90;;;;;;6702785;88;20087;-81
2023/10/22 14:46:33;;;;;;;;;;;15.50;99.90;;;;;;6701497;88;20049;-80
2023/10/22 14:56:34;;;;;;;;;;;15.40;99.90;;;;;;6701474;88;20070;-80
2023/10/22 15:06:34;;;;;;;;;;;15.30;99.90;;;;;;6713088;88;20051;-80
2023/10/22 15:16:35;;;;;;;;;;;15.30;99.90;;;;;;6700031;88;20049;-79
2023/10/22 15:26:35;;;;;;;;;;;15.40;99.90;;;;;;6697728;88;20590;-79
2023/10/22 15:36:36;;;;;;;;;;;15.00;99.90;;;;;;6698271;88;20359;-82
2023/10/22 15:46:36;;;;;;;;;;;14.80;99.90;;;;;;6701254;88;21106;-80
2023/10/22 15:56:37;;;;;;;;;;;14.70;99.90;;;;;;6701194;88;20095;-79
2023/10/22 16:06:37;;;;;;;;;;;14.70;99.90;;;;;;6695848;89;20095;-80
2023/10/22 16:16:38;;;;;;;;;;;14.60;99.90;;;;;;6704128;88;20052;-80
2023/10/22 16:26:38;;;;;;;;;;;14.50;99.90;;;;;;6704385;88;20056;-79
2023/10/22 16:36:40;;;;;;;;;;;14.50;99.90;;;;;;6712690;88;22160;-79
2023/10/22 16:46:40;;;;;;;;;;;14.40;99.90;;;;;;6709427;88;20168;-81
2023/10/22 16:56:41;;;;;;;;;;;14.10;99.90;;;;;;6709761;88;20151;-84
2023/10/22 17:06:42;;;;;;;;;;;13.80;99.90;;;;;;6708791;88;20102;-80
2023/10/22 17:16:42;;;;;;;;;;;13.50;99.90;;;;;;6709353;88;20080;-81
2023/10/22 17:26:43;;;;;;;;;;;13.40;99.90;;;;;;6702278;88;20065;-80
2023/10/22 17:36:46;;;;;;;;;;;13.50;99.90;;;;;;6700294;88;20107;-80
2023/10/22 17:46:49;;;;;;;;;;;13.40;99.90;;;;;;6727168;88;20082;-81
2023/10/22 17:56:50;;;;;;;;;;;13.20;99.90;;;;;;6705811;88;20109;-81
2023/10/22 18:06:50;;;;;;;;;;;13.40;99.90;;;;;;6709977;88;20055;-81
2023/10/22 18:16:51;;;;;;;;;;;13.50;99.90;;;;;;6707518;88;20037;-82
2023/10/22 18:26:52;;;;;;;;;;;13.50;99.90;;;;;;6706085;88;20674;-78
2023/10/22 18:36:52;;;;;;;;;;;13.50;99.90;;;;;;6708649;88;20075;-79
2023/10/22 18:46:53;;;;;;;;;;;13.60;99.90;;;;;;6718155;88;20040;-86
2023/10/22 18:56:53;;;;;;;;;;;13.40;99.90;;;;;;6716790;88;20079;-87
2023/10/22 19:06:54;;;;;;;;;;;13.40;99.90;;;;;;6714194;88;20191;-83
2023/10/22 19:16:54;;;;;;;;;;;13.30;99.90;;;;;;6715124;88;20044;-85
2023/10/22 19:26:55;;;;;;;;;;;13.30;99.90;;;;;;6714811;88;20104;-83
2023/10/22 19:36:55;;;;;;;;;;;13.30;99.90;;;;;;6714644;88;20028;-84
2023/10/22 19:46:56;;;;;;;;;;;13.30;99.90;;;;;;6713706;88;20032;-84
2023/10/22 19:57:00;;;;;;;;;;;13.30;99.90;;;;;;6714613;88;20032;-85
2023/10/22 20:17:03;;;;;;;;;;;13.30;99.90;;;;;;6711102;88;20088;-81
2023/10/22 20:27:04;;;;;;;;;;;13.30;99.90;;;;;;6693200;89;20113;-81
2023/10/22 20:37:08;;;;;;;;;;;13.30;99.90;;;;;;6705913;89;20036;-82
2023/10/22 20:47:12;;;;;;;;;;;13.20;99.90;;;;;;6697490;89;20081;-82
2023/10/22 20:57:13;;;;;;;;;;;13.10;99.90;;;;;;6693596;89;20518;-81
2023/10/22 21:07:13;;;;;;;;;;;13.00;99.90;;;;;;6696083;88;20111;-82
2023/10/22 21:17:14;;;;;;;;;;;13.00;99.90;;;;;;6693572;88;20662;-81
2023/10/22 21:27:14;;;;;;;;;;;12.80;99.90;;;;;;6695387;88;20142;-82
2023/10/22 21:37:14;;;;;;;;;;;12.70;99.90;;;;;;6695572;88;20558;-82
2023/10/22 21:47:15;;;;;;;;;;;12.60;99.90;;;;;;6697782;88;20052;-82
2023/10/22 21:57:15;;;;;;;;;;;12.50;99.90;;;;;;6697655;88;20052;-81
2023/10/22 22:07:16;;;;;;;;;;;12.50;99.90;;;;;;6697679;88;20039;-81
2023/10/22 22:17:16;;;;;;;;;;;12.50;99.90;;;;;;6697145;88;20131;-81
2023/10/22 22:27:17;;;;;;;;;;;12.50;99.90;;;;;;6696319;88;20096;-82
2023/10/22 22:37:18;;;;;;;;;;;12.50;99.90;;;;;;6700004;88;20059;-81
2023/10/22 22:47:19;;;;;;;;;;;12.40;99.90;;;;;;6697315;88;20055;-81
2023/10/22 22:57:19;;;;;;;;;;;12.40;99.90;;;;;;6694909;88;20544;-81
2023/10/22 23:07:23;;;;;;;;;;;12.40;99.90;;;;;;6697202;88;20024;-80
2023/10/22 23:17:23;;;;;;;;;;;12.30;99.90;;;;;;6708446;88;20824;-80
2023/10/22 23:27:24;;;;;;;;;;;12.30;99.90;;;;;;6703051;88;20203;-82
2023/10/22 23:37:24;;;;;;;;;;;12.30;99.90;;;;;;6696065;88;20134;-81
2023/10/22 23:47:25;;;;;;;;;;;12.30;99.90;;;;;;6697005;88;20647;-81
2023/10/22 23:57:25;;;;;;;;;;;12.30;99.90;;;;;;6698057;89;20056;-81
